sensor_id;sensor_type;location;lat;lon;timestamp;pressure;altitude;pressure_sealevel;temperature;humidity
49571;BME280;36970;39.352;20.286;2022-07-18T00:09:22;99640.13;;;26.84;52.70
49571;BME280;36970;39.352;20.286;2022-07-18T00:39:25;99641.72;;;25.79;63.27
49571;BME280;36970;39.352;20.286;2022-07-18T01:09:28;99641.84;;;25.40;63.85
49571;BME280;36970;39.352;20.286;2022-07-18T01:39:31;99671.38;;;24.60;70.79
49571;BME280;36970;39.352;20.286;2022-07-18T02:09:34;99689.38;;;24.58;73.61
49571;BME280;36970;39.352;20.286;2022-07-18T02:39:36;99681.63;;;25.35;83.38
49571;BME280;36970;39.352;20.286;2022-07-18T03:09:39;99692.28;;;24.10;98.04
49571;BME280;36970;39.352;20.286;2022-07-18T03:39:41;99685.25;;;23.96;89.16
49571;BME280;36970;39.352;20.286;2022-07-18T04:09:44;99681.59;;;24.63;75.94
49571;BME280;36970;39.352;20.286;2022-07-18T04:39:46;99697.19;;;25.38;87.69
49571;BME280;36970;39.352;20.286;2022-07-18T05:09:49;99702.56;;;26.08;76.87
49571;BME280;36970;39.352;20.286;2022-07-18T05:39:51;99725.00;;;26.38;89.61
49571;BME280;36970;39.352;20.286;2022-07-18T06:09:54;99735.16;;;26.67;86.55
49571;BME280;36970;39.352;20.286;2022-07-18T06:39:56;99726.03;;;26.37;100.00
49571;BME280;36970;39.352;20.286;2022-07-18T07:09:59;99730.28;;;26.00;100.00
49571;BME280;36970;39.352;20.286;2022-07-18T07:40:02;99727.25;;;27.34;100.00
49571;BME280;36970;39.352;20.286;2022-07-18T08:10:05;99744.97;;;27.71;80.61
49571;BME280;36970;39.352;20.286;2022-07-18T08:40:09;99768.81;;;27.97;88.88
49571;BME280;36970;39.352;20.286;2022-07-18T09:10:11;99773.41;;;28.26;79.29
49571;BME280;36970;39.352;20.286;2022-07-18T09:40:19;99786.00;;;28.43;71.26
49571;BME280;36970;39.352;20.286;2022-07-18T10:10:23;99775.94;;;28.86;62.90
49571;BME280;36970;39.352;20.286;2022-07-18T10:40:27;99760.56;;;29.23;54.13
49571;BME280;36970;39.352;20.286;2022-07-18T11:41:04;99753.13;;;29.48;70.78
49571;BME280;36970;39.352;20.286;2022-07-18T12:11:13;99713.75;;;30.95;59.14
49571;BME280;36970;39.352;20.286;2022-07-18T12:41:27;99721.09;;;31.16;48.59
49571;BME280;36970;39.352;20.286;2022-07-18T13:11:29;99703.50;;;31.58;49.58
49571;BME280;36970;39.352;20.286;2022-07-18T13:41:32;99682.94;;;32.86;40.83
49571;BME280;36970;39.352;20.286;2022-07-18T14:11:35;99669.16;;;33.19;39.07
49571;BME280;36970;39.352;20.286;2022-07-18T14:41:37;99636.72;;;33.09;42.12
49571;BME280;36970;39.352;20.286;2022-07-18T15:11:40;99625.75;;;33.67;45.98
49571;BME280;36970;39.352;20.286;2022-07-18T15:41:42;99607.50;;;34.04;39.03
49571;BME280;36970;39.352;20.286;2022-07-18T16:11:45;99618.38;;;31.95;40.33
49571;BME280;36970;39.352;20.286;2022-07-18T16:41:48;99620.09;;;31.20;40.76
49571;BME280;36970;39.352;20.286;2022-07-18T17:11:51;99627.31;;;30.25;43.09
49571;BME280;36970;39.352;20.286;2022-07-18T17:41:54;99625.28;;;28.73;49.56
49571;BME280;36970;39.352;20.286;2022-07-18T18:11:57;99628.94;;;27.36;63.02
49571;BME280;36970;39.352;20.286;2022-07-18T18:42:00;99652.09;;;26.99;100.00
49571;BME280;36970;39.352;20.286;2022-07-18T19:12:04;99644.50;;;26.72;100.00
49571;BME280;36970;39.352;20.286;2022-07-18T19:42:06;99666.19;;;26.82;100.00
49571;BME280;36970;39.352;20.286;2022-07-18T20:12:09;99670.75;;;26.06;100.00
49571;BME280;36970;39.352;20.286;2022-07-18T20:42:12;99665.41;;;26.13;73.48
49571;BME280;36970;39.352;20.286;2022-07-18T21:12:15;99680.19;;;26.84;66.08
49571;BME280;36970;39.352;20.286;2022-07-18T21:42:18;99696.41;;;26.82;68.37
49571;BME280;36970;39.352;20.286;2022-07-18T22:12:20;99688.34;;;26.89;66.44
49571;BME280;36970;39.352;20.286;2022-07-18T22:42:23;99699.91;;;27.07;60.91
49571;BME280;36970;39.352;20.286;2022-07-18T23:12:25;99698.34;;;26.69;60.44
49571;BME280;36970;39.352;20.286;2022-07-18T23:42:28;99691.41;;;26.24;60.38
